Login
Access
Login with your mtb-forum.it nickname and password.


You do not have an account? Sign up here for free

chandler

Last training unit 25/04/2018
0
Followers
11 015 Km
itineraries
104 475 m
of total vertical gain
482
hours of riding
23.16 Km/h
average speed
152
average HR


25/04/2018 Show to everybody Stadera 98.52 Km 802 m 04:19:28 22.78 Km\h Kuota Kobalt
24/04/2018 Show to everybody Giro pomeridiano 42.61 Km 122 m 01:43:08 24.79 Km\h Kuota Kobalt
22/04/2018 Show to everybody Giro mattutino 86.91 Km 706 m 03:53:35 22.33 Km\h Kuota Kobalt
21/04/2018 Show to everybody Giro dell`ora di pranzo 53.33 Km 522 m 02:15:04 23.69 Km\h Kuota Kobalt
19/04/2018 Show to everybody Giro pomeridiano 34.7 Km 270 m 01:32:45 22.45 Km\h Kuota Kobalt
17/04/2018 Show to everybody Giro mattutino 41.15 Km 108 m 01:49:28 22.56 Km\h Kuota Kobalt
15/04/2018 Show to everybody Reunion GSR 74.92 Km 838 m 03:25:01 21.93 Km\h Kuota Kobalt
14/04/2018 Show to everybody Giro dell`ora di pranzo 65.8 Km 708 m 02:57:55 22.19 Km\h Kuota Kobalt
02/04/2018 Show to everybody Rocca d’Olgisio 83.5 Km 872 m 03:51:28 21.64 Km\h Kuota Kobalt
31/03/2018 Show to everybody Giro mattutino 54.84 Km 445 m 02:12:54 24.76 Km\h Kuota Kobalt
24/02/2018 Show to everybody Watopia 30.42 Km 696 m 01:30:08 20.25 Km\h Kuota Kobalt
20/08/2017 Show to everybody Spargimento Sabbia 88.85 Km 1300 m 03:49:10 23.26 Km\h Kuota Kobalt
16/08/2017 Show to everybody Sciogli gamba 47.28 Km 520 m 01:57:35 24.13 Km\h Kuota Kobalt
13/08/2017 Show to everybody Quasi Scott (medio versione 2016) 89.1 Km 1127 m 03:44:10 23.85 Km\h Kuota Kobalt
11/08/2017 Show to everybody Ba(r)gnolino a stomaco vuoto. 50.84 Km 394 m 01:56:37 26.16 Km\h Kuota Kobalt
08/08/2017 Show to everybody Destinati a perdersi 29.18 Km 62 m 01:34:43 18.48 Km\h Kuota Kobalt
05/08/2017 Show to everybody Sotto la palla il cicloamatore campa. 93.87 Km 2053 m 05:25:08 17.32 Km\h Kuota Kobalt
03/08/2017 Show to everybody Valloncini for breakfast 44.7 Km 362 m 01:43:32 25.9 Km\h Kuota Kobalt
30/07/2017 Show to everybody I tre dell`Ave Maria 69.93 Km 1259 m 03:24:57 20.47 Km\h Kuota Kobalt
25/07/2017 Show to everybody Monteventano GS 64.03 Km 611 m 02:40:47 23.89 Km\h Kuota Kobalt
22/07/2017 Show to everybody Panoramico GS 81.61 Km 1233 m 03:50:48 21.22 Km\h Kuota Kobalt
21/07/2017 Show to everybody Vitello dai piedi di Balsa 44.84 Km 219 m 02:10:03 20.69 Km\h Jab 27.2
18/07/2017 Show to everybody Giro mattutino 44.61 Km 240 m 01:45:46 25.31 Km\h Kuota Kobalt
16/07/2017 Show to everybody Cotto & Balitto 109.02 Km 1548 m 04:46:37 22.82 Km\h Kuota Kobalt
12/07/2017 Show to everybody Giro mattutino 53.37 Km 512 m 02:09:47 24.67 Km\h Kuota Kobalt
09/07/2017 Show to everybody Gs Rottofreno con deviazione 82.09 Km 1314 m 03:43:02 22.08 Km\h Kuota Kobalt
09/07/2017 Show to everybody Giro mattutino 13.2 Km 10 m 00:33:13 23.85 Km\h Kuota Kobalt
04/07/2017 Show to everybody Gino & Michele 61.62 Km 650 m 02:35:45 23.74 Km\h Kuota Kobalt
04/07/2017 Show to everybody Giro mattutino 13.22 Km 15 m 00:29:53 26.54 Km\h Kuota Kobalt
02/07/2017 Show to everybody Cerro - Mandrola - Pigazzano 97.44 Km 1604 m 04:13:35 23.05 Km\h Kuota Kobalt
28/06/2017 Show to everybody giro_mattutino 50.95 Km 465 m 01:55:51 26.39 Km\h Kuota Kobalt
25/06/2017 Show to everybody da_rotto_a_gosso_allungando_ 37.95 Km 310 m 01:31:56 24.77 Km\h Kuota Kobalt
25/06/2017 Show to everybody gs_rottofreno_ 70.72 Km 691 m 02:45:56 25.57 Km\h Kuota Kobalt
25/06/2017 Show to everybody da_gosso_a_rotto 13.13 Km 15 m 00:30:48 25.57 Km\h Kuota Kobalt
22/06/2017 Show to everybody cementi rossi 51.04 Km 438 m 02:01:35 25.19 Km\h Kuota Kobalt
18/06/2017 Show to everybody muri 84.43 Km 1137 m 03:44:11 22.6 Km\h Kuota Kobalt
18/06/2017 Show to everybody gossorotto 13.17 Km 11 m 00:28:34 27.67 Km\h Kuota Kobalt
14/06/2017 Show to everybody lacrime 41.58 Km 353 m 01:37:15 25.65 Km\h Kuota Kobalt
11/06/2017 Show to everybody mediofondo_stelvio_santini 118.46 Km 1898 m 04:54:48 24.11 Km\h Kuota Kobalt
03/06/2017 Show to everybody pre stelvio 89.35 Km 1776 m 04:17:15 20.84 Km\h Kuota Kobalt
01/06/2017 Show to everybody a_spasso_con_rudy 62.8 Km 387 m 02:24:38 26.05 Km\h Kuota Kobalt
28/05/2017 Show to everybody GS Rottofreno in trasferta 112.41 Km 923 m 04:26:15 25.33 Km\h Kuota Kobalt
24/05/2017 Show to everybody Giro pomeridiano 39.85 Km 331 m 01:35:28 25.05 Km\h Kuota Kobalt
22/05/2017 Show to everybody Giro pomeridiano 39.6 Km 286 m 01:34:23 25.17 Km\h Kuota Kobalt
16/05/2017 Show to everybody Al gancio di (e con) Andrea 51.88 Km 727 m 02:12:30 23.49 Km\h Kuota Kobalt
13/05/2017 Show to everybody Giro mattutino 78.8 Km 1009 m 03:19:57 23.65 Km\h Kuota Kobalt
08/05/2017 Show to everybody Giro pomeridiano 44.63 Km 397 m 01:46:03 25.25 Km\h Kuota Kobalt
04/05/2017 Show to everybody Due gocce 34.53 Km 225 m 01:24:56 24.39 Km\h Kuota Kobalt
30/04/2017 Show to everybody Giro mattutino 73.96 Km 922 m 03:01:55 24.39 Km\h Kuota Kobalt
25/04/2017 Show to everybody Guselli 96.92 Km 902 m 03:46:59 25.62 Km\h Kuota Kobalt
15/04/2017 Show to everybody Santifica le feste 104.88 Km 1501 m 04:49:31 21.74 Km\h Kuota Kobalt
12/04/2017 Show to everybody Giro pomeridiano 40.53 Km 212 m 01:34:00 25.87 Km\h Kuota Kobalt
09/04/2017 Show to everybody Giro mattutino 89.84 Km 1234 m 03:59:07 22.54 Km\h Kuota Kobalt
06/04/2017 Show to everybody Giro pomeridiano 38.08 Km 255 m 01:33:26 24.46 Km\h Kuota Kobalt
04/04/2017 Show to everybody Giro pomeridiano 50.12 Km 115 m 01:59:15 25.22 Km\h Kuota Kobalt
01/04/2017 Show to everybody Giro mattutino 101.63 Km 1321 m 04:25:33 22.96 Km\h Kuota Kobalt
29/03/2017 Show to everybody Giro pomeridiano 44.77 Km 86 m 01:46:56 25.12 Km\h Kuota Kobalt
26/03/2017 Show to everybody Giro mattutino 79.31 Km 1209 m 03:23:36 23.37 Km\h Kuota Kobalt
21/03/2017 Show to everybody Giro pomeridiano 40.33 Km 124 m 01:35:24 25.36 Km\h Kuota Kobalt
18/03/2017 Show to everybody Giro mattutino 60.85 Km 515 m 02:58:24 20.47 Km\h Kuota Kobalt
15/03/2017 Show to everybody MTB 36.19 Km 429 m 02:09:28 16.77 Km\h Kuota Kobalt
12/03/2017 Show to everybody Ciclobenedetto 65.86 Km 730 m 02:50:38 23.16 Km\h Kuota Kobalt
09/03/2017 Show to everybody Giro pomeridiano 34.83 Km 239 m 01:25:28 24.45 Km\h Kuota Kobalt
08/03/2017 Show to everybody Giro mattutino 38.72 Km 73 m 01:33:25 24.87 Km\h Kuota Kobalt
05/03/2017 Show to everybody Caldarola da Mezzano Scotti 77.74 Km 1014 m 03:18:50 23.46 Km\h Kuota Kobalt
26/02/2017 Show to everybody Rezzanello - Monticello - Rallio - Bassano 63.31 Km 918 m 02:54:03 21.82 Km\h Kuota Kobalt
23/02/2017 Show to everybody Giro pomeridiano 34.15 Km 237 m 01:31:17 22.44 Km\h Kuota Kobalt
18/02/2017 Show to everybody Lunch Ride 55.19 Km 504 m 02:19:20 23.77 Km\h Kuota Kobalt
12/02/2017 Show to everybody MTB 40.46 Km 464 m 02:20:32 17.27 Km\h Jab 27.2
28/01/2017 Show to everybody MTB 33.81 Km 293 m 01:52:53 17.97 Km\h Jab 27.2
18/01/2017 Show to everybody Mtb 30.59 Km 106 m 01:27:11 21.05 Km\h Jab 27.2
14/01/2017 Show to everybody MTB 30.58 Km 79 m 01:41:51 18.01 Km\h Jab 27.2
10/12/2016 Show to everybody MTB 39.94 Km 119 m 02:09:25 18.52 Km\h Kuota Kobalt
03/12/2016 Show to everybody MTB 42.46 Km 530 m 02:26:22 17.41 Km\h Kuota Kobalt
09/10/2016 Show to everybody MTB 39.81 Km 411 m 02:10:10 18.35 Km\h Kuota Kobalt
06/10/2016 Show to everybody Giro pomeridiano 40.33 Km 194 m 01:37:15 24.88 Km\h Kuota Kobalt
04/10/2016 Show to everybody Giro pomeridiano 37.12 Km 63 m 01:33:44 23.76 Km\h Kuota Kobalt
01/10/2016 Show to everybody Giro mattutino 58.08 Km 735 m 02:43:29 21.31 Km\h Kuota Kobalt
28/09/2016 Show to everybody Giro pomeridiano 47.34 Km 421 m 02:02:03 23.27 Km\h Kuota Kobalt
26/09/2016 Show to everybody Giro pomeridiano 38.17 Km 98 m 01:36:42 23.69 Km\h Kuota Kobalt
08/09/2016 Show to everybody Giro pomeridiano 45.72 Km 346 m 01:47:43 25.47 Km\h Kuota Kobalt
20/08/2016 Show to everybody Giro mattutino 93.29 Km 976 m 03:59:45 23.35 Km\h Kuota Kobalt
15/08/2016 Show to everybody Giro mattutino con Garmin impazzito 58.28 Km 903 m 02:50:26 20.52 Km\h Kuota Kobalt
11/08/2016 Show to everybody Giro pomeridiano 47.17 Km 381 m 01:59:17 23.73 Km\h Kuota Kobalt
09/08/2016 Show to everybody Giro pomeridiano 35.98 Km 88 m 01:27:22 24.71 Km\h Kuota Kobalt
06/08/2016 Show to everybody Nemmeno a spinta... 35.29 Km 404 m 01:33:26 22.66 Km\h Kuota Kobalt
04/08/2016 Show to everybody Giro mattutino 61.41 Km 514 m 02:56:01 20.93 Km\h Kuota Kobalt
31/07/2016 Show to everybody Giro mattutino 65.25 Km 586 m 02:41:37 24.22 Km\h Kuota Kobalt
24/08/2014 Show to everybody Allenamento 24-08-14 alle 05:43 78.28 Km 797 m 03:18:58 23.61 Km\h Kuota Kobalt
23/08/2014 Show to everybody Allenamento 23-08-14 alle 14:20 52.05 Km 336 m 01:51:29 28.02 Km\h Kuota Kobalt
21/08/2014 Show to everybody Allenamento 21-08-14 alle 13:24 51.08 Km 470 m 02:06:31 24.22 Km\h Kuota Kobalt
14/08/2014 Show to everybody Allenamento 14-08-14 alle 13:37 40.23 Km 147 m 01:26:01 28.06 Km\h Kuota Kobalt
10/08/2014 Show to everybody Allenamento 10-08-14 alle 05:02 78.83 Km 887 m 03:21:58 23.42 Km\h Kuota Kobalt
05/08/2014 Show to everybody Allenamento 05-08-14 alle 05:54 57.18 Km 574 m 02:25:14 23.62 Km\h Kuota Kobalt
31/07/2014 Show to everybody Allenamento 31-07-14 alle 14:13 40.96 Km 154 m 01:21:03 30.32 Km\h Kuota Kobalt
23/07/2014 Show to everybody Allenamento 23-07-14 alle 06:04 61.69 Km 424 m 02:19:12 26.59 Km\h Kuota Kobalt
17/07/2014 Show to everybody Allenamento 17-07-14 alle 06:21 56.6 Km 417 m 02:17:32 24.69 Km\h Kuota Kobalt
13/07/2014 Show to everybody Allenamento 13-07-14 alle 04:40 59.27 Km 443 m 02:21:34 25.12 Km\h Kuota Kobalt
06/07/2014 Show to everybody Allenamento 06-07-14 alle 04:43 48.86 Km 1712 m 03:37:49 13.46 Km\h Kuota Kobalt
06/07/2014 Show to everybody Allenamento 06-07-14 alle 10:15 8.37 Km 139 m 00:34:06 14.73 Km\h Kuota Kobalt
29/06/2014 Show to everybody Allenamento 29-06-14 alle 05:15 75.63 Km 768 m 03:17:40 22.96 Km\h Kuota Kobalt
22/06/2014 Show to everybody Pigazzano - Antenne - Pietra - Rallio 93.65 Km 1280 m 04:35:47 20.38 Km\h Kuota Kobalt
18/06/2014 Show to everybody Allenamento 18-06-14 alle 05:14 42.62 Km 178 m 01:43:33 24.69 Km\h Kuota Kobalt
07/06/2014 Show to everybody Vigoleno - Vernasca 65.76 Km 686 m 03:01:48 21.7 Km\h Kuota Kobalt
01/06/2014 Show to everybody Rottofreno - Cavi di Lavagna 132.16 Km 1119 m 05:21:38 24.65 Km\h Kuota Kobalt
25/05/2014 Show to everybody Allenamento 25-05-14 alle 05:31 92.05 Km 1068 m 04:23:02 21 Km\h Kuota Kobalt
17/05/2014 Show to everybody Allenamento 17-05-14 alle 12:16 72.37 Km 659 m 03:02:38 23.78 Km\h Kuota Kobalt
10/05/2014 Show to everybody Allenamento 10-05-14 alle 12:50 65.12 Km 629 m 03:00:43 21.62 Km\h Kuota Kobalt
04/05/2014 Show to everybody Allenamento 04-05-14 alle 06:48 66.82 Km 526 m 02:49:28 23.66 Km\h Kuota Kobalt
29/04/2014 Show to everybody Allenamento 29-04-14 alle 13:13 41.54 Km 163 m 01:37:11 25.64 Km\h Kuota Kobalt
25/04/2014 Show to everybody Allenamento 25-04-14 alle 05:39 93.24 Km 857 m 04:09:51 22.39 Km\h Kuota Kobalt
13/03/2014 Show to everybody Allenamento 13-03-14 alle 07:41 51.85 Km 275 m 02:16:50 22.73 Km\h Kuota Kobalt
06/03/2014 Show to everybody Allenamento 06-03-14 alle 14:18 40.77 Km 163 m 01:47:57 22.66 Km\h Kuota Kobalt
24/02/2014 Show to everybody Allenamento 24-02-14 alle 13:50 36 Km 131 m 01:29:35 24.11 Km\h Kuota Kobalt
27/08/2013 Show to everybody Allenamento 27-08-13 alle 06:08 59.87 Km 645 m 02:46:24 21.59 Km\h Kuota Kobalt
25/08/2013 Show to everybody Allenamento 25-08-13 alle 05:53 57.38 Km 441 m 02:32:55 22.51 Km\h Kuota Kobalt
17/08/2013 Show to everybody Operazione Mercatello 88.95 Km 1409 m 04:27:28 19.95 Km\h Kuota Kobalt
15/08/2013 Show to everybody Allenamento 15-08-13 alle 04:44 90.16 Km 1081 m 04:06:32 21.94 Km\h Kuota Kobalt
13/08/2013 Show to everybody Allenamento 13-08-13 alle 15:14 39.78 Km 151 m 01:27:12 27.37 Km\h Kuota Kobalt
11/08/2013 Show to everybody Allenamento 11-08-13 alle 05:28 91.13 Km 742 m 03:52:42 23.5 Km\h Kuota Kobalt
07/08/2013 Show to everybody Allenamento 07-08-13 alle 04:57 57.4 Km 458 m 02:30:43 22.85 Km\h Kuota Kobalt
03/08/2013 Show to everybody Allenamento 03-08-13 alle 04:54 53.54 Km 370 m 02:10:29 24.62 Km\h Kuota Kobalt
28/07/2013 Show to everybody Allenamento 28-07-13 alle 05:00 51.33 Km 838 m 02:50:44 18.04 Km\h Kuota Kobalt
21/07/2013 Show to everybody Allenamento 21-07-13 alle 06:02 68.82 Km 1154 m 03:25:56 20.05 Km\h Kuota Kobalt
14/07/2013 Show to everybody Allenamento 14-07-13 alle 04:45 90.86 Km 992 m 04:00:14 22.69 Km\h Kuota Kobalt
09/07/2013 Show to everybody Allenamento 09-07-13 alle 14:14 70.45 Km 539 m 03:08:29 22.42 Km\h Kuota Kobalt
07/07/2013 Show to everybody Allenamento 07-07-13 alle 05:45 56.53 Km 430 m 02:34:49 21.91 Km\h Kuota Kobalt
06/07/2013 Show to everybody Allenamento 06-07-13 alle 06:18 50.08 Km 354 m 02:22:59 21.01 Km\h Kuota Kobalt
04/07/2013 Show to everybody Allenamento 04-07-13 alle 06:15 81.88 Km 402 m 03:21:45 24.35 Km\h Kuota Kobalt
01/07/2013 Show to everybody Allenamento 01-07-13 alle 03:20 5.75 Km 20 m 00:14:14 24.24 Km\h Kuota Kobalt
01/07/2013 Show to everybody Allenamento 01-07-13 alle 12:03 6.71 Km 5 m 00:15:32 25.92 Km\h Kuota Kobalt
28/06/2013 Show to everybody Allenamento 28-06-13 alle 10:16 4.85 Km 22 m 00:11:57 24.33 Km\h Kuota Kobalt
27/06/2013 Show to everybody Allenamento 27-06-13 alle 03:15 5.78 Km 22 m 00:13:50 25.09 Km\h Kuota Kobalt
27/06/2013 Show to everybody Allenamento 27-06-13 alle 12:08 6.45 Km 4 m 00:12:59 29.79 Km\h Kuota Kobalt
25/06/2013 Show to everybody Allenamento 25-06-13 alle 03:17 6.23 Km 21 m 00:15:08 24.69 Km\h Kuota Kobalt
23/06/2013 Show to everybody Allenamento 23-06-13 alle 05:28 41.86 Km 377 m 01:54:48 21.88 Km\h Kuota Kobalt
19/06/2013 Show to everybody Allenamento 19-06-13 alle 03:18 6.57 Km 20 m 00:16:16 24.23 Km\h Kuota Kobalt
19/06/2013 Show to everybody Allenamento 19-06-13 alle 12:10 6.59 Km 0 m 00:14:26 27.39 Km\h Kuota Kobalt
17/06/2013 Show to everybody Allenamento 17-06-13 alle 03:18 6.33 Km 24 m 00:15:22 24.73 Km\h Kuota Kobalt
17/06/2013 Show to everybody Allenamento 17-06-13 alle 12:13 6.28 Km 4 m 00:13:07 28.71 Km\h Kuota Kobalt
16/06/2013 Show to everybody Allenamento 16-06-13 alle 06:09 41.11 Km 157 m 01:30:54 27.14 Km\h Kuota Kobalt
11/06/2013 Show to everybody Allenamento 11-06-13 alle 13:10 55.58 Km 270 m 02:10:25 25.57 Km\h Kuota Kobalt
03/06/2013 Show to everybody Allenamento 03-06-13 alle 12:47 49.04 Km 334 m 02:02:25 24.03 Km\h Kuota Kobalt
02/06/2013 Show to everybody Allenamento 02-06-13 alle 07:45 3.06 Km 5 m 00:21:27 8.55 Km\h Kuota Kobalt
02/06/2013 Show to everybody Allenamento 02-06-13 alle 09:00 3.18 Km 7 m 00:20:41 9.21 Km\h Kuota Kobalt
30/05/2013 Show to everybody Allenamento 30-05-13 alle 12:55 40.9 Km 192 m 01:45:48 23.2 Km\h Kuota Kobalt
12/05/2013 Show to everybody Allenamento 12-05-13 alle 05:22 61.82 Km 572 m 02:49:18 21.91 Km\h Kuota Kobalt
04/05/2013 Show to everybody Allenamento 04-05-13 alle 13:11 54.04 Km 654 m 02:47:16 19.39 Km\h Kuota Kobalt
01/05/2013 Show to everybody Allenamento 01-05-13 alle 05:22 43.35 Km 191 m 01:51:34 23.31 Km\h Kuota Kobalt
25/04/2013 Show to everybody Allenamento 25-04-13 alle 05:01 91.71 Km 752 m 04:14:46 21.6 Km\h Kuota Kobalt
13/04/2013 Show to everybody Allenamento 13-04-13 alle 11:35 67.84 Km 394 m 03:03:37 22.17 Km\h Kuota Kobalt
10/04/2013 Show to everybody Allenamento 10-04-13 alle 12:40 40.77 Km 173 m 01:40:47 24.27 Km\h Kuota Kobalt
06/04/2013 Show to everybody Allenamento 06-04-13 alle 13:16 52.06 Km 257 m 02:20:18 22.26 Km\h Kuota Kobalt
10/03/2013 Show to everybody Allenamento 10-03-13 alle 08:10 49.3 Km 391 m 02:21:32 20.9 Km\h Kuota Kobalt
03/03/2013 Show to everybody Allenamento 03-03-13 alle 07:39 55.51 Km 289 m 02:30:57 22.06 Km\h Kuota Kobalt
30/09/2012 Show to everybody Epica 68.42 Km 474 m 03:16:28 20.9 Km\h Kuota Kobalt
30/09/2012 Show to everybody Pre Epica 6.45 Km 0 m 00:19:21 20.01 Km\h Kuota Kobalt
09/09/2012 Show to everybody Cicloripresa post Praga 62.51 Km 296 m 02:33:03 24.51 Km\h Kuota Kobalt
28/08/2012 Show to everybody CicloDario pre Colnago 46.52 Km 320 m 01:55:05 24.25 Km\h Kuota Kobalt
26/08/2012 Show to everybody Ciclosalame ma gentile 84.08 Km 501 m 03:07:38 26.89 Km\h Kuota Kobalt
18/08/2012 Show to everybody Ciclo pffff 41.13 Km 163 m 01:30:57 27.14 Km\h Kuota Kobalt
14/08/2012 Show to everybody CicloDario Corto o simile 60.01 Km 566 m 02:44:33 21.88 Km\h Kuota Kobalt
12/08/2012 Show to everybody 1°Cicloraduno ASD Cobram 80.98 Km 909 m 03:41:22 21.95 Km\h Kuota Kobalt
09/08/2012 Show to everybody Allenamento 09-08-12 alle 14:29 64.41 Km 348 m 02:34:37 24.99 Km\h Kuota Kobalt
01/08/2012 Show to everybody Pigazzano (Piazza) 45.67 Km 419 m 01:49:39 24.99 Km\h Kuota Kobalt
29/07/2012 Show to everybody CicloSvuotato della domenica. 101.53 Km 1202 m 04:24:15 23.05 Km\h Kuota Kobalt
26/07/2012 Show to everybody Ciclo a metà con il morto. 42.04 Km 238 m 01:49:03 23.13 Km\h Kuota Kobalt
24/07/2012 Show to everybody Prove tecniche di Colnago (P.Corto) 61.07 Km 552 m 02:27:42 24.81 Km\h Kuota Kobalt
22/07/2012 Show to everybody Passo Caldarola (mezzano) - Momeliano 95.92 Km 1184 m 04:06:02 23.39 Km\h Kuota Kobalt
19/07/2012 Show to everybody Pigazzano (Piazza) con Vittorio 49.2 Km 432 m 02:09:47 22.75 Km\h Kuota Kobalt
15/07/2012 Show to everybody Pietra Parcellara 79.61 Km 914 m 03:17:45 24.15 Km\h Kuota Kobalt
11/07/2012 Show to everybody Allenamento con Dario, ripresa. 46.18 Km 332 m 02:04:31 22.25 Km\h Kuota Kobalt
07/07/2012 Show to everybody Allenamento 07-07-12 alle 13:14 53.92 Km 303 m 02:06:05 25.66 Km\h Kuota Kobalt
05/07/2012 Show to everybody Allenamento 05-07-12 alle 13:45 40.58 Km 225 m 01:27:20 27.88 Km\h Kuota Kobalt
01/07/2012 Show to everybody Ritorno a Costadedoi 7.54 Km 94 m 00:31:29 14.37 Km\h Kuota Kobalt
01/07/2012 Show to everybody Maratona Dles Dolomites 56.49 Km 1715 m 03:51:06 14.67 Km\h Kuota Kobalt
26/06/2012 Show to everybody Allenamento 26-06-12 alle 15:41 40.87 Km 229 m 01:32:07 26.62 Km\h Kuota Kobalt
24/06/2012 Show to everybody Allenamento 24-06-12 alle 05:02 79.59 Km 1040 m 03:59:18 19.96 Km\h Kuota Kobalt
17/06/2012 Show to everybody Allenamento 17-06-12 alle 04:05 130.02 Km 923 m 05:02:43 25.77 Km\h Kuota Kobalt
16/06/2012 Show to everybody Allenamento 16-06-12 alle 06:30 52.08 Km 243 m 02:14:44 23.19 Km\h Kuota Kobalt
10/06/2012 Show to everybody Allenamento 10-06-12 alle 05:38 42.03 Km 145 m 01:41:50 24.76 Km\h Kuota Kobalt
03/06/2012 Show to everybody Piacenza - Chiosi. 65.31 Km 514 m 02:37:04 24.95 Km\h Kuota Kobalt
27/05/2012 Show to everybody Momeliano. 55.62 Km 409 m 02:14:10 24.87 Km\h Kuota Kobalt
24/05/2012 Show to everybody Momeliano#1 54.75 Km 415 m 02:16:10 24.12 Km\h Kuota Kobalt
20/05/2012 Show to everybody Nove Colli 131.51 Km 2035 m 05:34:31 23.59 Km\h Kuota Kobalt
14/05/2012 Show to everybody Allenamento 14-05-12 alle 15:15 54.33 Km 294 m 02:09:52 25.1 Km\h Kuota Kobalt
09/05/2012 Show to everybody Allenamento 09-05-12 alle 13:57 40.79 Km 177 m 01:27:08 28.09 Km\h Kuota Kobalt
06/05/2012 Show to everybody Allenamento 06-05-12 alle 06:26 53.79 Km 386 m 02:23:59 22.42 Km\h Kuota Kobalt
03/05/2012 Show to everybody Allenamento 03-05-12 alle 13:58 41.07 Km 124 m 01:38:51 24.93 Km\h Kuota Kobalt
22/04/2012 Show to everybody Pietra Parcellara. 76.07 Km 839 m 03:54:06 19.5 Km\h Kuota Kobalt
09/04/2012 Show to everybody Allenamento 09-04-12 alle 06:15 43.45 Km 164 m 01:43:29 25.19 Km\h Kuota Kobalt
01/04/2012 Show to everybody Bagnolo. 54.67 Km 391 m 02:26:54 22.33 Km\h Kuota Kobalt
28/03/2012 Show to everybody Allenamento 28-03-12 alle 12:44 42.57 Km 245 m 01:42:40 24.88 Km\h Kuota Kobalt
25/03/2012 Show to everybody Allenamento 25-03-12 alle 07:00 49.34 Km 329 m 02:13:36 22.16 Km\h Kuota Kobalt
20/03/2012 Show to everybody Allenamento 20-03-12 alle 14:14 41.98 Km 182 m 01:42:21 24.61 Km\h Kuota Kobalt
17/03/2012 Show to everybody Pontenuro Go to back 74.34 Km 836 m 03:55:58 18.9 Km\h Kuota Kobalt
07/03/2012 Show to everybody Allenamento 07-03-12 alle 13:35 30.08 Km 60 m 01:10:16 25.69 Km\h Kuota Kobalt
01/03/2012 Show to everybody Allenamento 01-03-12 alle 14:04 35.36 Km 142 m 01:20:45 26.27 Km\h Kuota Kobalt
26/02/2012 Show to everybody Allenamento 26-02-12 alle 08:36 35.73 Km 93 m 01:28:34 24.21 Km\h Kuota Kobalt
25/01/2012 Show to everybody Allenamento 25-01-12 alle 12:50 42.25 Km 156 m 01:42:44 24.68 Km\h Kuota Kobalt

Show previous years trainings
This user's bikes.
Kuota Kobalt 12 688.77 Km 7985 m 28:32:07 24.85 Km/h
Jab 27.2 5 180.28 Km 1161 m 09:32:30 19 Km/h

137 points
Kilometers
0
Vertical gain
0
Rank:114

Watch ranking »

 

Bike name

Delete this bike?

Now you follow this users and you can compare your trainings

If you stop following this users you will not be able to compare your trainings with his


bdc-forum.it | 2012-2019 Training Camp v.1.0.15